Portada
METAR-TAF:

METAR-TAF

Aeroports :

San José, Costa Rica

latitud: 09-57N, longitud: 084-09W, altitud: 994 m

Observació

L'informe es va fer fa 1 hora i 0 minuts, a les 13:00 UTC
Vent 3 kt del Est/Sud-Est
Temperatura 19°C
Humitat 83%
Pressió 1017 hPa
Visibilitat 10 km o més
plugim

METAR: MRPV 181300Z 11003KT 9999 DZ NSC 19/16 A3003 NOSIG

Hora: 08:00 (14:00 UTC)

Pronòstic

L'informe es va fer fa 3 hores i 0 minuts, a les 11:00 UTC
Pronòstic vàlid del 18 a les 12 UTC al 19 a les 12 UTC
Vent 12 kt del Est
Visibilitat 10 km o més
Escasses núvols a una alçada de 4500 ft

TAF: MRPV 181100Z 1812/1912 09012KT 9999 FEW045 TX27/1819Z TN19/1910Z

Observacions i pronòstics meteorològics de més de 4000 aeroports (METAR i TAF).

Les estacions disponibles són els punts grocs i vermells al mapa.

Posi el ratolí al punt desitjat per veure el nom de l'estació.

Feu clic per veure les observacions i els pronòstics meteorològics.

Per canviar el mapa: feu clic els botons verds amb una creu de color negre per apropar; al botó verd amb un guió per allunyar la imatge; o en les fletxes verdes per a mapes adjacents.


METAR-TAF: